VHDAN LIME-LIDB
Flight info
| Callsign | VHDAN |
|---|---|
| Flight time | 0h 53m |
| Altitude | 3500 |
| Route | DCT |
| Aircraft | DC3/M-VGD/A |
Departure
| Time | 2026-04-22 09:35 |
|---|---|
| Airport | Il Caravaggio International Airport (LIME) |
Arrival
| Time | 2026-04-22 10:28 |
|---|---|
| Airport | Belluno Arturo dell'Oro Airport (LIDB) |
| Time | Latitude | Longitude | Altitude | Speed | Heading |
|---|---|---|---|---|---|
| 2026-04-22 09:28 | 45.67244 | 9.69761 | 788 ft | 0 kts | 194° |
| 2026-04-22 09:30 | 45.67190 | 9.69703 | 788 ft | 21 kts | 256° |
| 2026-04-22 09:31 | 45.67200 | 9.69444 | 788 ft | 16 kts | 279° |
| 2026-04-22 09:31 | 45.67183 | 9.69366 | 788 ft | 0 kts | 215° |
| 2026-04-22 09:32 | 45.67151 | 9.69343 | 788 ft | 12 kts | 201° |
| 2026-04-22 09:32 | 45.67122 | 9.69327 | 788 ft | 0 kts | 200° |
| 2026-04-22 09:33 | 45.67102 | 9.69319 | 788 ft | 14 kts | 189° |
| 2026-04-22 09:33 | 45.66998 | 9.69452 | 788 ft | 33 kts | 103° |
| 2026-04-22 09:33 | 45.66912 | 9.69971 | 789 ft | 71 kts | 104° |
| 2026-04-22 09:34 | 45.66779 | 9.70745 | 813 ft | 86 kts | 103° |
| 2026-04-22 09:34 | 45.66745 | 9.71611 | 951 ft | 92 kts | 89° |
| 2026-04-22 09:34 | 45.66620 | 9.72508 | 1091 ft | 98 kts | 115° |
| 2026-04-22 09:35 | 45.66257 | 9.74405 | 1555 ft | 103 kts | 108° |
| 2026-04-22 09:35 | 45.66065 | 9.75417 | 1806 ft | 110 kts | 109° |
| 2026-04-22 09:35 | 45.65857 | 9.76513 | 2019 ft | 119 kts | 108° |
| 2026-04-22 09:35 | 45.65630 | 9.77689 | 2203 ft | 126 kts | 108° |
| 2026-04-22 09:36 | 45.65366 | 9.79033 | 2263 ft | 150 kts | 107° |
| 2026-04-22 09:36 | 45.65085 | 9.80502 | 2402 ft | 156 kts | 108° |
| 2026-04-22 09:36 | 45.64791 | 9.82015 | 2500 ft | 161 kts | 108° |
| 2026-04-22 09:36 | 45.64488 | 9.83618 | 2508 ft | 171 kts | 108° |
| 2026-04-22 09:37 | 45.64283 | 9.85326 | 2489 ft | 180 kts | 94° |
| 2026-04-22 09:37 | 45.64248 | 9.87123 | 2502 ft | 182 kts | 95° |
| 2026-04-22 09:37 | 45.64194 | 9.88901 | 2711 ft | 175 kts | 96° |
| 2026-04-22 09:37 | 45.64136 | 9.90621 | 2957 ft | 173 kts | 95° |
| 2026-04-22 09:38 | 45.64076 | 9.92311 | 3148 ft | 169 kts | 95° |
| 2026-04-22 09:38 | 45.64029 | 9.93966 | 3351 ft | 168 kts | 96° |
| 2026-04-22 09:38 | 45.63977 | 9.95617 | 3550 ft | 165 kts | 95° |
| 2026-04-22 09:38 | 45.63937 | 9.97231 | 3724 ft | 160 kts | 94° |
| 2026-04-22 09:39 | 45.63899 | 9.98825 | 3909 ft | 161 kts | 94° |
| 2026-04-22 09:39 | 45.63883 | 10.00430 | 4077 ft | 164 kts | 86° |
| 2026-04-22 09:39 | 45.64478 | 10.01866 | 4017 ft | 183 kts | 39° |
| 2026-04-22 09:39 | 45.65645 | 10.02615 | 4165 ft | 180 kts | 25° |
| 2026-04-22 09:40 | 45.66751 | 10.03295 | 4465 ft | 167 kts | 26° |
| 2026-04-22 09:40 | 45.67794 | 10.03931 | 4715 ft | 160 kts | 26° |
| 2026-04-22 09:40 | 45.68814 | 10.04556 | 4919 ft | 160 kts | 26° |
| 2026-04-22 09:40 | 45.69861 | 10.05201 | 4994 ft | 168 kts | 26° |
| 2026-04-22 09:41 | 45.70963 | 10.05875 | 4982 ft | 175 kts | 26° |
| 2026-04-22 09:41 | 45.72097 | 10.06566 | 4983 ft | 178 kts | 26° |
| 2026-04-22 09:41 | 45.73247 | 10.07260 | 4985 ft | 181 kts | 25° |
| 2026-04-22 09:41 | 45.74415 | 10.07963 | 4978 ft | 183 kts | 25° |
| 2026-04-22 09:42 | 45.75592 | 10.08684 | 4978 ft | 184 kts | 25° |
| 2026-04-22 09:42 | 45.76772 | 10.09403 | 4973 ft | 185 kts | 24° |
| 2026-04-22 09:42 | 45.77871 | 10.10336 | 4898 ft | 186 kts | 51° |
| 2026-04-22 09:42 | 45.78206 | 10.12070 | 4769 ft | 185 kts | 100° |
| 2026-04-22 09:43 | 45.77885 | 10.13773 | 4959 ft | 168 kts | 107° |
| 2026-04-22 09:43 | 45.77608 | 10.15347 | 5070 ft | 162 kts | 106° |
| 2026-04-22 09:43 | 45.77326 | 10.16948 | 5004 ft | 169 kts | 106° |
| 2026-04-22 09:43 | 45.77032 | 10.18603 | 4982 ft | 174 kts | 106° |
| 2026-04-22 09:44 | 45.76730 | 10.20302 | 4966 ft | 177 kts | 106° |
| 2026-04-22 09:44 | 45.76419 | 10.22012 | 4971 ft | 179 kts | 106° |
| 2026-04-22 09:44 | 45.76107 | 10.23746 | 4970 ft | 180 kts | 105° |
| 2026-04-22 09:44 | 45.75803 | 10.25490 | 4964 ft | 180 kts | 105° |
| 2026-04-22 09:45 | 45.75509 | 10.27227 | 4973 ft | 179 kts | 105° |
| 2026-04-22 09:45 | 45.75208 | 10.28966 | 4968 ft | 180 kts | 105° |
| 2026-04-22 09:45 | 45.74858 | 10.30680 | 4960 ft | 179 kts | 112° |
| 2026-04-22 09:45 | 45.74368 | 10.32320 | 4968 ft | 179 kts | 114° |
| 2026-04-22 09:46 | 45.73881 | 10.33958 | 4975 ft | 178 kts | 114° |
| 2026-04-22 09:46 | 45.73399 | 10.35591 | 4975 ft | 179 kts | 114° |
| 2026-04-22 09:46 | 45.72912 | 10.37228 | 4976 ft | 180 kts | 114° |
| 2026-04-22 09:46 | 45.72427 | 10.38895 | 4977 ft | 182 kts | 113° |
| 2026-04-22 09:47 | 45.71992 | 10.40606 | 4951 ft | 185 kts | 102° |
| 2026-04-22 09:47 | 45.72232 | 10.42421 | 4900 ft | 191 kts | 68° |
| 2026-04-22 09:47 | 45.72758 | 10.44128 | 5004 ft | 185 kts | 69° |
| 2026-04-22 09:47 | 45.73244 | 10.45840 | 5009 ft | 187 kts | 69° |
| 2026-04-22 09:48 | 45.74058 | 10.47296 | 4900 ft | 195 kts | 35° |
| 2026-04-22 09:48 | 45.75225 | 10.48233 | 4982 ft | 190 kts | 31° |
| 2026-04-22 09:48 | 45.76356 | 10.49203 | 5000 ft | 190 kts | 32° |
| 2026-04-22 09:48 | 45.77499 | 10.50185 | 4984 ft | 193 kts | 32° |
| 2026-04-22 09:49 | 45.78652 | 10.51184 | 4966 ft | 194 kts | 32° |
| 2026-04-22 09:49 | 45.79806 | 10.52181 | 4961 ft | 193 kts | 32° |
| 2026-04-22 09:49 | 45.80955 | 10.53182 | 4955 ft | 193 kts | 32° |
| 2026-04-22 09:49 | 45.82106 | 10.54185 | 4958 ft | 194 kts | 32° |
| 2026-04-22 09:50 | 45.83258 | 10.55196 | 4957 ft | 195 kts | 32° |
| 2026-04-22 09:50 | 45.84409 | 10.56176 | 4954 ft | 195 kts | 31° |
| 2026-04-22 09:50 | 45.85581 | 10.57164 | 4955 ft | 195 kts | 31° |
| 2026-04-22 09:50 | 45.86749 | 10.58152 | 4944 ft | 194 kts | 31° |
| 2026-04-22 09:51 | 45.87912 | 10.59137 | 4943 ft | 194 kts | 31° |
| 2026-04-22 09:51 | 45.89073 | 10.60124 | 4940 ft | 193 kts | 31° |
| 2026-04-22 09:51 | 45.90224 | 10.61111 | 4940 ft | 193 kts | 31° |
| 2026-04-22 09:51 | 45.91371 | 10.62102 | 4938 ft | 192 kts | 31° |
| 2026-04-22 09:52 | 45.92506 | 10.63086 | 4931 ft | 192 kts | 31° |
| 2026-04-22 09:52 | 45.93652 | 10.64089 | 4935 ft | 191 kts | 31° |
| 2026-04-22 09:52 | 45.94790 | 10.65088 | 4935 ft | 192 kts | 31° |
| 2026-04-22 09:52 | 45.95931 | 10.66089 | 4935 ft | 192 kts | 31° |
| 2026-04-22 09:53 | 45.97080 | 10.67075 | 4937 ft | 192 kts | 30° |
| 2026-04-22 09:53 | 45.98235 | 10.68051 | 4938 ft | 193 kts | 30° |
| 2026-04-22 09:53 | 45.99391 | 10.69036 | 4939 ft | 193 kts | 31° |
| 2026-04-22 09:53 | 46.00536 | 10.70045 | 4942 ft | 193 kts | 31° |
| 2026-04-22 09:54 | 46.01683 | 10.71050 | 4934 ft | 193 kts | 31° |
| 2026-04-22 09:54 | 46.02829 | 10.72047 | 4936 ft | 192 kts | 30° |
| 2026-04-22 09:54 | 46.04098 | 10.72639 | 4906 ft | 193 kts | 10° |
| 2026-04-22 09:54 | 46.05408 | 10.72981 | 4942 ft | 191 kts | 11° |
| 2026-04-22 09:55 | 46.06709 | 10.73355 | 4946 ft | 191 kts | 11° |
| 2026-04-22 09:55 | 46.08018 | 10.73725 | 4932 ft | 192 kts | 11° |
| 2026-04-22 09:55 | 46.09332 | 10.74099 | 4931 ft | 193 kts | 11° |
| 2026-04-22 09:55 | 46.10647 | 10.74472 | 4928 ft | 192 kts | 11° |
| 2026-04-22 09:56 | 46.11960 | 10.74844 | 4930 ft | 192 kts | 11° |
| 2026-04-22 09:56 | 46.13265 | 10.75216 | 4927 ft | 191 kts | 12° |
| 2026-04-22 09:56 | 46.14128 | 10.75481 | 4944 ft | 190 kts | 12° |
| 2026-04-22 09:56 | 46.15810 | 10.76038 | 5112 ft | 182 kts | 19° |
| 2026-04-22 09:57 | 46.16539 | 10.76631 | 5156 ft | 183 kts | 35° |
| 2026-04-22 09:57 | 46.17905 | 10.78017 | 5348 ft | 176 kts | 34° |
| 2026-04-22 09:57 | 46.18569 | 10.78671 | 5439 ft | 173 kts | 34° |
| 2026-04-22 09:57 | 46.19804 | 10.80120 | 5610 ft | 175 kts | 55° |
| 2026-04-22 09:58 | 46.20180 | 10.81169 | 5559 ft | 181 kts | 63° |
| 2026-04-22 09:58 | 46.21123 | 10.82440 | 5272 ft | 196 kts | 26° |
| 2026-04-22 09:58 | 46.22302 | 10.82794 | 5763 ft | 153 kts | 2° |
| 2026-04-22 09:58 | 46.23159 | 10.83144 | 6117 ft | 129 kts | 33° |
| 2026-04-22 09:59 | 46.23854 | 10.83858 | 6311 ft | 117 kts | 32° |
| 2026-04-22 09:59 | 46.24532 | 10.84385 | 6636 ft | 98 kts | 19° |
| 2026-04-22 09:59 | 46.25227 | 10.84568 | 6586 ft | 118 kts | 11° |
| 2026-04-22 09:59 | 46.26098 | 10.84891 | 6558 ft | 134 kts | 15° |
| 2026-04-22 10:00 | 46.26994 | 10.85236 | 6742 ft | 132 kts | 15° |
| 2026-04-22 10:00 | 46.27879 | 10.85578 | 6942 ft | 133 kts | 15° |
| 2026-04-22 10:00 | 46.28814 | 10.85933 | 6990 ft | 146 kts | 14° |
| 2026-04-22 10:00 | 46.29857 | 10.86311 | 6964 ft | 163 kts | 14° |
| 2026-04-22 10:01 | 46.30021 | 10.86371 | 6961 ft | 165 kts | 14° |
| 2026-04-22 10:02 | 46.31075 | 10.86768 | 6934 ft | 174 kts | 15° |
| 2026-04-22 10:03 | 46.32242 | 10.87276 | 6929 ft | 178 kts | 25° |
| 2026-04-22 10:03 | 46.33129 | 10.88542 | 6884 ft | 187 kts | 55° |
| 2026-04-22 10:03 | 46.33880 | 10.90095 | 6974 ft | 186 kts | 53° |
| 2026-04-22 10:03 | 46.34647 | 10.91607 | 6966 ft | 188 kts | 54° |
| 2026-04-22 10:04 | 46.35393 | 10.93134 | 6950 ft | 189 kts | 54° |
| 2026-04-22 10:04 | 46.36147 | 10.94687 | 6946 ft | 188 kts | 54° |
| 2026-04-22 10:04 | 46.36907 | 10.96242 | 6950 ft | 191 kts | 54° |
| 2026-04-22 10:04 | 46.37690 | 10.97795 | 6937 ft | 191 kts | 53° |
| 2026-04-22 10:05 | 46.38283 | 10.99501 | 6870 ft | 196 kts | 82° |
| 2026-04-22 10:05 | 46.37953 | 11.01402 | 6828 ft | 197 kts | 117° |
| 2026-04-22 10:05 | 46.37340 | 11.03118 | 7010 ft | 190 kts | 114° |
| 2026-04-22 10:05 | 46.36757 | 11.04862 | 6984 ft | 195 kts | 115° |
| 2026-04-22 10:06 | 46.36157 | 11.06625 | 6959 ft | 195 kts | 115° |
| 2026-04-22 10:06 | 46.35544 | 11.08378 | 6951 ft | 195 kts | 116° |
| 2026-04-22 10:06 | 46.34921 | 11.10149 | 6946 ft | 199 kts | 116° |
| 2026-04-22 10:06 | 46.34299 | 11.11949 | 6944 ft | 202 kts | 116° |
| 2026-04-22 10:07 | 46.33661 | 11.13767 | 6929 ft | 201 kts | 116° |
| 2026-04-22 10:07 | 46.33035 | 11.15549 | 6943 ft | 197 kts | 116° |
| 2026-04-22 10:07 | 46.32410 | 11.17299 | 6947 ft | 195 kts | 116° |
| 2026-04-22 10:07 | 46.31791 | 11.19055 | 6959 ft | 198 kts | 116° |
| 2026-04-22 10:08 | 46.31485 | 11.20981 | 6872 ft | 200 kts | 86° |
| 2026-04-22 10:08 | 46.31596 | 11.22962 | 6957 ft | 196 kts | 85° |
| 2026-04-22 10:08 | 46.31657 | 11.24919 | 6965 ft | 193 kts | 86° |
| 2026-04-22 10:08 | 46.31711 | 11.26859 | 6956 ft | 194 kts | 86° |
| 2026-04-22 10:09 | 46.31682 | 11.28819 | 6908 ft | 199 kts | 103° |
| 2026-04-22 10:09 | 46.30902 | 11.30480 | 6852 ft | 202 kts | 135° |
| 2026-04-22 10:09 | 46.29926 | 11.31876 | 6981 ft | 195 kts | 133° |
| 2026-04-22 10:09 | 46.28979 | 11.33299 | 6970 ft | 198 kts | 134° |
| 2026-04-22 10:10 | 46.28025 | 11.34726 | 6946 ft | 197 kts | 134° |
| 2026-04-22 10:10 | 46.27058 | 11.36121 | 6948 ft | 197 kts | 135° |
| 2026-04-22 10:10 | 46.26367 | 11.37788 | 6854 ft | 198 kts | 100° |
| 2026-04-22 10:10 | 46.26473 | 11.39735 | 6884 ft | 190 kts | 78° |
| 2026-04-22 10:11 | 46.26682 | 11.41602 | 6993 ft | 189 kts | 81° |
| 2026-04-22 10:11 | 46.26880 | 11.43490 | 6963 ft | 191 kts | 80° |
| 2026-04-22 10:11 | 46.27078 | 11.45399 | 6938 ft | 192 kts | 80° |
| 2026-04-22 10:11 | 46.27278 | 11.47331 | 6948 ft | 197 kts | 79° |
| 2026-04-22 10:12 | 46.27498 | 11.49284 | 6928 ft | 196 kts | 81° |
| 2026-04-22 10:12 | 46.27694 | 11.51196 | 6935 ft | 195 kts | 81° |
| 2026-04-22 10:12 | 46.27894 | 11.53137 | 6938 ft | 195 kts | 80° |
| 2026-04-22 10:12 | 46.28095 | 11.55077 | 6942 ft | 196 kts | 82° |
| 2026-04-22 10:13 | 46.28301 | 11.57027 | 6933 ft | 197 kts | 81° |
| 2026-04-22 10:13 | 46.28505 | 11.58981 | 6941 ft | 196 kts | 80° |
| 2026-04-22 10:13 | 46.28714 | 11.60939 | 6936 ft | 198 kts | 81° |
| 2026-04-22 10:13 | 46.29031 | 11.62871 | 6900 ft | 198 kts | 62° |
| 2026-04-22 10:14 | 46.29726 | 11.64573 | 6914 ft | 195 kts | 66° |
| 2026-04-22 10:14 | 46.30142 | 11.66436 | 6964 ft | 194 kts | 72° |
| 2026-04-22 10:14 | 46.30222 | 11.68389 | 6923 ft | 197 kts | 97° |
| 2026-04-22 10:14 | 46.30020 | 11.70339 | 6971 ft | 196 kts | 98° |
| 2026-04-22 10:15 | 46.29974 | 11.72289 | 6896 ft | 196 kts | 76° |
| 2026-04-22 10:15 | 46.30626 | 11.74021 | 6936 ft | 195 kts | 55° |
| 2026-04-22 10:15 | 46.31355 | 11.75655 | 7159 ft | 189 kts | 56° |
| 2026-04-22 10:15 | 46.32026 | 11.77230 | 7363 ft | 180 kts | 58° |
| 2026-04-22 10:16 | 46.32527 | 11.78684 | 7974 ft | 145 kts | 57° |
| 2026-04-22 10:16 | 46.33286 | 11.79677 | 7927 ft | 156 kts | 35° |
| 2026-04-22 10:16 | 46.34058 | 11.80804 | 8072 ft | 159 kts | 57° |
| 2026-04-22 10:16 | 46.34593 | 11.82322 | 7934 ft | 177 kts | 62° |
| 2026-04-22 10:17 | 46.35153 | 11.83933 | 7943 ft | 181 kts | 61° |
| 2026-04-22 10:17 | 46.35729 | 11.85591 | 7962 ft | 186 kts | 61° |
| 2026-04-22 10:17 | 46.36309 | 11.87299 | 7945 ft | 189 kts | 63° |
| 2026-04-22 10:17 | 46.36521 | 11.89179 | 7866 ft | 198 kts | 98° |
| 2026-04-22 10:18 | 46.36164 | 11.91082 | 7955 ft | 197 kts | 105° |
| 2026-04-22 10:18 | 46.35823 | 11.93003 | 7987 ft | 197 kts | 103° |
| 2026-04-22 10:18 | 46.35480 | 11.94932 | 7968 ft | 198 kts | 104° |
| 2026-04-22 10:18 | 46.34922 | 11.96748 | 7849 ft | 206 kts | 131° |
| 2026-04-22 10:19 | 46.33705 | 11.97937 | 7573 ft | 215 kts | 152° |
| 2026-04-22 10:19 | 46.32450 | 11.99064 | 7413 ft | 208 kts | 144° |
| 2026-04-22 10:19 | 46.31332 | 12.00347 | 7255 ft | 203 kts | 139° |
| 2026-04-22 10:19 | 46.30291 | 12.01726 | 7081 ft | 203 kts | 136° |
| 2026-04-22 10:20 | 46.29747 | 12.02473 | 6983 ft | 203 kts | 136° |
| 2026-04-22 10:21 | 46.28936 | 12.03581 | 6838 ft | 204 kts | 136° |
| 2026-04-22 10:21 | 46.27821 | 12.04831 | 6598 ft | 207 kts | 157° |
| 2026-04-22 10:21 | 46.26528 | 12.05721 | 6291 ft | 207 kts | 140° |
| 2026-04-22 10:22 | 46.25661 | 12.07349 | 6055 ft | 201 kts | 123° |
| 2026-04-22 10:22 | 46.24894 | 12.08985 | 5927 ft | 194 kts | 131° |
| 2026-04-22 10:22 | 46.23790 | 12.10120 | 5704 ft | 197 kts | 151° |
| 2026-04-22 10:22 | 46.22608 | 12.11114 | 5518 ft | 197 kts | 149° |
| 2026-04-22 10:23 | 46.21419 | 12.12146 | 5208 ft | 201 kts | 148° |
| 2026-04-22 10:23 | 46.20199 | 12.13099 | 4782 ft | 201 kts | 168° |
| 2026-04-22 10:23 | 46.18830 | 12.12879 | 4274 ft | 198 kts | 197° |
| 2026-04-22 10:23 | 46.17557 | 12.12367 | 4080 ft | 178 kts | 188° |
| 2026-04-22 10:24 | 46.16424 | 12.12858 | 3898 ft | 176 kts | 139° |
| 2026-04-22 10:24 | 46.15946 | 12.14439 | 3729 ft | 175 kts | 94° |
| 2026-04-22 10:24 | 46.15951 | 12.16120 | 3897 ft | 159 kts | 93° |
| 2026-04-22 10:24 | 46.15899 | 12.17652 | 4003 ft | 146 kts | 94° |
| 2026-04-22 10:25 | 46.15859 | 12.19075 | 3739 ft | 140 kts | 93° |
| 2026-04-22 10:25 | 46.15819 | 12.20459 | 3505 ft | 136 kts | 94° |
| 2026-04-22 10:25 | 46.15778 | 12.21802 | 3317 ft | 132 kts | 95° |
| 2026-04-22 10:25 | 46.15741 | 12.23120 | 3118 ft | 132 kts | 94° |
| 2026-04-22 10:26 | 46.15705 | 12.24443 | 2927 ft | 132 kts | 94° |
| 2026-04-22 10:26 | 46.15666 | 12.25761 | 2742 ft | 130 kts | 94° |
| 2026-04-22 10:26 | 46.15874 | 12.26943 | 2579 ft | 118 kts | 54° |
| 2026-04-22 10:26 | 46.16350 | 12.27820 | 2508 ft | 108 kts | 60° |
| 2026-04-22 10:27 | 46.16784 | 12.28708 | 2328 ft | 113 kts | 44° |
| 2026-04-22 10:27 | 46.17534 | 12.28838 | 2003 ft | 114 kts | 333° |
| 2026-04-22 10:27 | 46.17984 | 12.27953 | 1541 ft | 109 kts | 286° |
| 2026-04-22 10:27 | 46.17767 | 12.27134 | 1562 ft | 78 kts | 219° |
| 2026-04-22 10:28 | 46.17335 | 12.26708 | 1666 ft | 72 kts | 221° |
| 2026-04-22 10:28 | 46.17093 | 12.26092 | 1534 ft | 84 kts | 262° |
| 2026-04-22 10:28 | 46.16828 | 12.25378 | 1368 ft | 79 kts | 222° |
| 2026-04-22 10:28 | 46.16496 | 12.24891 | 1333 ft | 45 kts | 226° |
| 2026-04-22 10:29 | 46.16425 | 12.24677 | 1337 ft | 18 kts | 21° |
| 2026-04-22 10:29 | 46.16559 | 12.24847 | 1335 ft | 34 kts | 48° |
| 2026-04-22 10:29 | 46.16697 | 12.25011 | 1336 ft | 16 kts | 21° |
| 2026-04-22 10:29 | 46.16782 | 12.25022 | 1337 ft | 12 kts | 54° |
| 2026-04-22 10:30 | 46.16796 | 12.25057 | 1337 ft | 0 kts | 58° |